createdAt,value
2023-05-21T00:00:25.331Z,62.11
2023-05-21T00:03:30.438Z,62.15
2023-05-21T00:06:33.360Z,61.97
2023-05-21T00:09:39.660Z,61.95
2023-05-21T00:12:42.163Z,62.18
2023-05-21T00:15:44.805Z,61.92
2023-05-21T00:18:49.819Z,62.10
2023-05-21T00:21:52.286Z,61.89
2023-05-21T00:24:54.679Z,62.04
2023-05-21T00:27:57.516Z,62.15
2023-05-21T00:31:00.006Z,61.91
2023-05-21T00:34:02.415Z,61.93
2023-05-21T00:37:05.966Z,62.21
2023-05-21T00:40:09.596Z,62.02
2023-05-21T00:43:12.042Z,61.84
2023-05-21T00:46:16.767Z,62.03
2023-05-21T00:49:22.490Z,62.13
2023-05-21T00:52:27.236Z,62.22
2023-05-21T00:55:29.889Z,61.96
2023-05-21T00:58:33.662Z,62.05
2023-05-21T01:01:37.233Z,62.13
2023-05-21T01:04:39.986Z,62.05
2023-05-21T01:07:42.739Z,62.12
2023-05-21T01:10:45.188Z,62.29
2023-05-21T01:13:48.053Z,62.13
2023-05-21T01:16:50.742Z,62.12
2023-05-21T01:19:54.802Z,62.26
2023-05-21T01:22:58.372Z,62.27
2023-05-21T01:26:00.809Z,62.02
2023-05-21T01:29:03.379Z,62.20
2023-05-21T01:32:11.650Z,62.14
2023-05-21T01:35:26.957Z,62.16
2023-05-21T01:39:07.150Z,62.32
2023-05-21T01:42:10.606Z,62.37
2023-05-21T01:45:15.139Z,62.27
2023-05-21T01:48:17.678Z,62.24
2023-05-21T01:51:20.508Z,62.27
2023-05-21T01:54:24.242Z,62.35
2023-05-21T01:57:26.712Z,62.70
2023-05-21T02:00:29.692Z,62.40
2023-05-21T02:03:32.516Z,62.47
2023-05-21T02:06:36.093Z,62.13
2023-05-21T02:09:38.582Z,62.21
2023-05-21T02:12:40.968Z,62.35
2023-05-21T02:15:45.118Z,62.53
2023-05-21T02:18:51.583Z,62.37
2023-05-21T02:21:54.230Z,62.58
2023-05-21T02:24:56.628Z,62.57
2023-05-21T02:27:59.585Z,62.36
2023-05-21T02:31:02.061Z,62.22
2023-05-21T02:34:04.534Z,62.63
2023-05-21T02:37:07.006Z,62.57
2023-05-21T02:40:13.213Z,62.77
2023-05-21T02:43:16.269Z,62.60
2023-05-21T02:46:19.278Z,62.75
2023-05-21T02:49:21.791Z,62.82
2023-05-21T02:52:24.485Z,62.68
2023-05-21T02:55:27.738Z,62.89
2023-05-21T02:58:30.174Z,62.76
2023-05-21T03:01:32.764Z,62.87
2023-05-21T03:04:39.216Z,62.69
2023-05-21T03:07:42.502Z,63.10
2023-05-21T03:10:46.840Z,62.83
2023-05-21T03:13:49.384Z,62.77
2023-05-21T03:16:51.921Z,63.03
2023-05-21T03:19:54.866Z,62.83
2023-05-21T03:22:57.510Z,62.74
2023-05-21T03:25:59.997Z,62.67
2023-05-21T03:29:02.856Z,63.02
2023-05-21T03:32:06.352Z,62.72
2023-05-21T03:35:09.303Z,63.03
2023-05-21T03:38:11.908Z,62.75
2023-05-21T03:41:14.431Z,62.78
2023-05-21T03:44:20.136Z,62.46
2023-05-21T03:47:31.242Z,62.88
2023-05-21T03:50:34.927Z,62.84
2023-05-21T03:53:37.390Z,62.66
2023-05-21T03:56:39.950Z,62.43
2023-05-21T03:59:42.403Z,62.32
2023-05-21T04:02:44.962Z,62.32
2023-05-21T04:05:50.941Z,62.04
2023-05-21T04:08:53.499Z,62.28
2023-05-21T04:11:56.395Z,62.40
2023-05-21T04:14:58.889Z,62.13
2023-05-21T04:18:01.843Z,62.09
2023-05-21T04:21:06.047Z,62.28
2023-05-21T04:24:08.585Z,61.92
2023-05-21T04:27:29.425Z,61.98
2023-05-21T04:30:35.687Z,61.83
2023-05-21T04:33:42.265Z,61.66
2023-05-21T04:36:45.636Z,61.75
2023-05-21T04:39:49.079Z,61.84
2023-05-21T04:42:51.706Z,61.98
2023-05-21T04:45:56.830Z,61.35
2023-05-21T04:49:03.026Z,61.13
2023-05-21T04:52:05.608Z,61.52
2023-05-21T04:55:09.019Z,61.21
2023-05-21T04:58:11.616Z,60.78
2023-05-21T05:01:19.190Z,60.10
2023-05-21T05:04:21.693Z,60.15
2023-05-21T05:07:24.394Z,59.85
2023-05-21T05:10:27.734Z,59.88
2023-05-21T05:13:31.504Z,59.64
2023-05-21T05:16:35.741Z,59.85
2023-05-21T05:19:38.303Z,59.67
2023-05-21T05:22:40.884Z,59.46
2023-05-21T05:25:43.301Z,59.72
2023-05-21T05:28:46.382Z,59.21
2023-05-21T05:31:49.176Z,59.03
2023-05-21T05:34:51.637Z,58.93
2023-05-21T05:37:54.056Z,58.77
2023-05-21T05:40:56.514Z,58.72
2023-05-21T05:43:58.986Z,58.60
2023-05-21T05:47:09.283Z,58.25
2023-05-21T05:50:12.013Z,58.11
2023-05-21T05:53:14.831Z,57.83
2023-05-21T05:56:17.311Z,57.80
2023-05-21T05:59:20.226Z,57.74
2023-05-21T06:02:25.618Z,57.39
2023-05-21T06:05:29.309Z,57.21
2023-05-21T06:08:37.349Z,57.18
2023-05-21T06:11:40.657Z,56.69
2023-05-21T06:14:45.134Z,56.46
2023-05-21T06:17:47.967Z,56.24
2023-05-21T06:20:51.239Z,55.83
2023-05-21T06:23:55.638Z,55.50
2023-05-21T06:26:58.270Z,55.24
2023-05-21T06:30:00.909Z,54.76
2023-05-21T06:33:03.586Z,53.93
2023-05-21T06:36:06.604Z,53.96
2023-05-21T06:39:09.100Z,52.78
2023-05-21T06:42:11.884Z,52.24
2023-05-21T06:45:20.746Z,52.18
2023-05-21T06:48:26.417Z,51.61
2023-05-21T06:51:28.956Z,50.97
2023-05-21T06:54:31.702Z,51.02
2023-05-21T06:57:34.129Z,50.17
2023-05-21T07:00:36.678Z,49.80
2023-05-21T07:03:39.913Z,49.12
2023-05-21T07:06:43.947Z,48.87
2023-05-21T07:09:47.280Z,48.31
2023-05-21T07:12:49.779Z,48.13
2023-05-21T07:15:52.460Z,47.69
2023-05-21T07:18:55.154Z,47.13
2023-05-21T07:21:57.854Z,47.43
2023-05-21T07:25:00.694Z,47.50
2023-05-21T07:28:05.895Z,46.86
2023-05-21T07:31:12.377Z,46.97
2023-05-21T07:34:19.497Z,46.70
2023-05-21T07:37:22.054Z,46.80
2023-05-21T07:40:25.212Z,46.65
2023-05-21T07:43:27.858Z,46.92
2023-05-21T07:46:30.579Z,46.86
2023-05-21T07:49:33.859Z,47.13
2023-05-21T07:52:36.414Z,47.16
2023-05-21T07:55:39.112Z,47.20
2023-05-21T07:58:43.995Z,47.32
2023-05-21T08:01:46.485Z,47.66
2023-05-21T08:04:49.087Z,47.88
2023-05-21T08:07:51.586Z,48.20
2023-05-21T08:10:55.531Z,48.17
2023-05-21T08:14:00.812Z,48.53
2023-05-21T08:17:03.451Z,48.96
2023-05-21T08:20:07.410Z,49.66
2023-05-21T08:23:12.636Z,50.13
2023-05-21T08:26:24.353Z,50.63
2023-05-21T08:29:26.965Z,51.01
2023-05-21T08:32:30.266Z,51.21
2023-05-21T08:35:32.832Z,51.30
2023-05-21T08:38:50.931Z,51.44
2023-05-21T08:42:35.469Z,51.79
2023-05-21T08:45:42.902Z,52.09
2023-05-21T08:48:47.160Z,52.04
2023-05-21T08:51:50.435Z,52.33
2023-05-21T08:54:53.674Z,52.45
2023-05-21T08:57:56.354Z,52.37
2023-05-21T09:01:00.631Z,52.75
2023-05-21T09:04:16.288Z,52.66
2023-05-21T09:07:25.498Z,53.20
2023-05-21T09:10:52.360Z,53.21
2023-05-21T09:13:58.523Z,53.38
2023-05-21T09:17:08.906Z,53.33
2023-05-21T09:20:13.620Z,53.39
2023-05-21T09:23:20.204Z,53.28
2023-05-21T09:26:24.325Z,53.51
2023-05-21T09:29:29.912Z,53.57
2023-05-21T09:32:32.438Z,53.69
2023-05-21T09:35:36.214Z,53.91
2023-05-21T09:38:41.889Z,53.87
2023-05-21T09:41:44.437Z,53.90
2023-05-21T09:44:47.740Z,53.93
2023-05-21T09:47:51.260Z,54.04
2023-05-21T09:50:54.025Z,54.05
2023-05-21T09:54:00.417Z,54.35
2023-05-21T09:57:03.163Z,54.43
2023-05-21T10:00:08.925Z,54.39
2023-05-21T10:03:17.188Z,54.39
2023-05-21T10:06:19.858Z,54.56
2023-05-21T10:09:22.671Z,54.75
2023-05-21T10:12:25.793Z,54.57
2023-05-21T10:15:28.778Z,54.63
2023-05-21T10:18:32.599Z,54.67
2023-05-21T10:21:35.153Z,54.90
2023-05-21T10:24:38.281Z,54.70
2023-05-21T10:27:41.802Z,54.91
2023-05-21T10:30:45.055Z,54.98
2023-05-21T10:33:47.854Z,54.82
2023-05-21T10:36:51.234Z,54.83
2023-05-21T10:39:54.592Z,54.80
2023-05-21T10:43:26.907Z,55.11
2023-05-21T10:46:38.623Z,55.12
2023-05-21T10:50:02.783Z,55.04
2023-05-21T10:53:18.108Z,54.96
2023-05-21T10:56:29.020Z,55.21
2023-05-21T10:59:42.737Z,55.29
2023-05-21T11:02:46.008Z,55.19
2023-05-21T11:05:56.069Z,55.18
2023-05-21T11:09:03.129Z,55.12
2023-05-21T11:12:08.170Z,55.29
2023-05-21T11:15:16.481Z,55.34
2023-05-21T11:18:18.933Z,55.33
2023-05-21T11:21:22.693Z,55.30
2023-05-21T11:24:25.716Z,55.29
2023-05-21T11:27:37.052Z,55.53
2023-05-21T11:30:41.094Z,55.49
2023-05-21T11:33:43.742Z,55.48
2023-05-21T11:36:47.924Z,55.58
2023-05-21T11:39:51.469Z,55.36
2023-05-21T11:42:55.651Z,55.53
2023-05-21T11:45:58.238Z,55.58
2023-05-21T11:49:01.301Z,55.49
2023-05-21T11:52:05.660Z,55.41
2023-05-21T11:55:08.950Z,55.62
2023-05-21T11:58:16.807Z,55.64
2023-05-21T12:01:26.674Z,55.79
2023-05-21T12:04:36.645Z,55.62
2023-05-21T12:07:39.043Z,55.59
2023-05-21T12:10:42.425Z,55.81
2023-05-21T12:13:46.091Z,55.74
2023-05-21T12:16:48.629Z,55.58
2023-05-21T12:19:53.063Z,55.86
2023-05-21T12:22:57.418Z,55.68
2023-05-21T12:25:59.947Z,55.76
2023-05-21T12:29:04.813Z,55.70
2023-05-21T12:32:09.357Z,55.88
2023-05-21T12:35:21.785Z,55.80
2023-05-21T12:38:24.401Z,55.92
2023-05-21T12:41:26.889Z,55.77
2023-05-21T12:44:32.809Z,55.90
2023-05-21T12:47:35.983Z,55.53
2023-05-21T12:53:44.750Z,55.92
2023-05-21T12:56:47.218Z,55.92
2023-05-21T12:59:56.885Z,56.04
2023-05-21T13:03:01.211Z,55.91
2023-05-21T13:06:07.142Z,55.97
2023-05-21T13:09:09.699Z,55.98
2023-05-21T13:12:13.290Z,55.87
2023-05-21T13:15:15.763Z,55.93
2023-05-21T13:18:18.391Z,56.02
2023-05-21T13:21:20.933Z,55.85
2023-05-21T13:24:23.402Z,56.02
2023-05-21T13:27:25.784Z,55.80
2023-05-21T13:30:28.394Z,55.90
2023-05-21T13:33:31.879Z,56.00
2023-05-21T13:36:34.606Z,56.06
2023-05-21T13:39:37.298Z,55.85
2023-05-21T13:42:39.893Z,55.86
2023-05-21T13:45:42.328Z,56.11
2023-05-21T13:48:45.040Z,55.93
2023-05-21T13:51:47.527Z,56.07
2023-05-21T13:54:50.051Z,55.93
2023-05-21T13:57:52.500Z,55.90
2023-05-21T14:00:54.892Z,55.87
2023-05-21T14:03:57.806Z,56.05
2023-05-21T14:07:01.062Z,56.12
2023-05-21T14:10:03.700Z,56.05
2023-05-21T14:13:18.426Z,56.27
2023-05-21T14:16:24.905Z,56.27
2023-05-21T14:19:27.546Z,56.17
2023-05-21T14:22:30.424Z,56.25
2023-05-21T14:25:32.874Z,56.01
2023-05-21T14:28:35.265Z,56.26
2023-05-21T14:31:38.495Z,56.24
2023-05-21T14:34:41.513Z,56.30
2023-05-21T14:37:43.920Z,56.20
2023-05-21T14:40:46.357Z,56.19
2023-05-21T14:43:48.816Z,56.33
2023-05-21T14:46:51.536Z,56.09
2023-05-21T14:49:54.032Z,56.20
2023-05-21T14:52:56.583Z,56.30
2023-05-21T14:55:58.969Z,56.06
2023-05-21T14:59:01.502Z,56.03
2023-05-21T15:02:05.006Z,56.24
2023-05-21T15:05:08.012Z,56.18
2023-05-21T15:11:12.710Z,56.40
2023-05-21T15:14:15.159Z,56.19
2023-05-21T15:17:17.577Z,56.35
2023-05-21T15:20:20.110Z,56.40
2023-05-21T15:23:22.578Z,56.35
2023-05-21T15:26:27.014Z,56.12
2023-05-21T15:29:29.481Z,56.44
2023-05-21T15:32:31.961Z,56.32
2023-05-21T15:35:36.415Z,56.43
2023-05-21T15:38:39.306Z,56.33
2023-05-21T15:41:42.228Z,56.29
2023-05-21T15:44:44.983Z,56.25
2023-05-21T15:47:47.538Z,56.10
2023-05-21T15:50:50.137Z,56.28
2023-05-21T15:53:52.644Z,56.39
2023-05-21T15:56:55.188Z,56.10
2023-05-21T15:59:57.712Z,56.12
2023-05-21T16:03:00.621Z,56.11
2023-05-21T16:06:04.527Z,56.29
2023-05-21T16:09:07.137Z,56.40
2023-05-21T16:12:09.581Z,56.33
2023-05-21T16:15:12.106Z,56.26
2023-05-21T16:18:14.562Z,56.42
2023-05-21T16:21:17.153Z,56.40
2023-05-21T16:24:19.574Z,56.16
2023-05-21T16:27:22.026Z,56.19
2023-05-21T16:30:24.645Z,56.41
2023-05-21T16:33:27.073Z,56.30
2023-05-21T16:39:31.652Z,56.41
2023-05-21T16:42:34.120Z,56.54
2023-05-21T16:48:43.209Z,56.26
2023-05-21T16:51:45.640Z,56.58
2023-05-21T16:54:48.973Z,56.49
2023-05-21T16:57:51.366Z,56.42
2023-05-21T17:00:53.980Z,56.22
2023-05-21T17:03:56.696Z,56.27
2023-05-21T17:06:59.273Z,56.50
2023-05-21T17:10:01.785Z,56.55
2023-05-21T17:13:17.550Z,56.56
2023-05-21T17:16:25.163Z,56.49
2023-05-21T17:19:27.726Z,56.40
2023-05-21T17:22:30.473Z,56.70
2023-05-21T17:25:34.437Z,56.76
2023-05-21T17:28:37.211Z,56.74
2023-05-21T17:31:39.699Z,56.56
2023-05-21T17:34:42.237Z,56.74
2023-05-21T17:37:44.983Z,56.72
2023-05-21T17:40:48.971Z,56.82
2023-05-21T17:43:51.619Z,56.60
2023-05-21T17:46:54.472Z,56.85
2023-05-21T17:49:56.920Z,56.77
2023-05-21T17:52:59.423Z,56.80
2023-05-21T17:56:03.477Z,56.79
2023-05-21T17:59:09.453Z,56.99
2023-05-21T18:02:12.513Z,56.46
2023-05-21T18:05:14.970Z,56.88
2023-05-21T18:08:17.356Z,56.83
2023-05-21T18:11:19.901Z,56.81
2023-05-21T18:14:22.523Z,56.83
2023-05-21T18:17:25.042Z,57.00
2023-05-21T18:20:27.597Z,56.95
2023-05-21T18:23:31.373Z,56.60
2023-05-21T18:26:33.936Z,57.05
2023-05-21T18:29:36.839Z,56.96
2023-05-21T18:32:39.528Z,56.95
2023-05-21T18:35:43.380Z,56.80
2023-05-21T18:38:47.295Z,56.74
2023-05-21T18:41:51.733Z,57.02
2023-05-21T18:45:06.401Z,57.13
2023-05-21T18:48:08.849Z,57.11
2023-05-21T18:51:11.372Z,57.00
2023-05-21T18:54:13.817Z,57.22
2023-05-21T18:57:16.495Z,57.04
2023-05-21T19:00:19.264Z,57.39
2023-05-21T19:03:21.724Z,57.23
2023-05-21T19:06:25.717Z,57.21
2023-05-21T19:09:28.135Z,57.26
2023-05-21T19:12:31.465Z,57.04
2023-05-21T19:15:33.962Z,57.25
2023-05-21T19:18:36.486Z,57.39
2023-05-21T19:21:39.222Z,57.31
2023-05-21T19:24:41.897Z,57.51
2023-05-21T19:27:44.645Z,57.58
2023-05-21T19:30:47.392Z,57.43
2023-05-21T19:33:49.977Z,57.38
2023-05-21T19:36:53.683Z,57.53
2023-05-21T19:39:56.405Z,57.50
2023-05-21T19:42:59.465Z,57.87
2023-05-21T19:46:01.929Z,57.50
2023-05-21T19:49:04.362Z,57.82
2023-05-21T19:52:06.879Z,57.97
2023-05-21T19:55:10.351Z,57.61
2023-05-21T19:58:16.744Z,57.79
2023-05-21T20:01:19.273Z,57.93
2023-05-21T20:04:21.819Z,57.95
2023-05-21T20:07:24.422Z,57.91
2023-05-21T20:10:28.242Z,58.05
2023-05-21T20:13:30.998Z,58.12
2023-05-21T20:16:33.707Z,58.17
2023-05-21T20:19:37.911Z,58.34
2023-05-21T20:22:40.610Z,58.30
2023-05-21T20:25:43.150Z,58.27
2023-05-21T20:28:48.286Z,58.56
2023-05-21T20:31:50.752Z,58.53
2023-05-21T20:35:02.742Z,58.50
2023-05-21T20:38:06.365Z,58.68
2023-05-21T20:41:08.878Z,58.58
2023-05-21T20:44:12.056Z,58.73
2023-05-21T20:47:14.627Z,58.62
2023-05-21T20:50:26.072Z,58.58
2023-05-21T20:53:28.582Z,58.65
2023-05-21T20:56:41.499Z,58.76
2023-05-21T20:59:45.174Z,58.60
2023-05-21T21:02:47.739Z,58.83
2023-05-21T21:05:50.317Z,59.01
2023-05-21T21:08:55.596Z,58.80
2023-05-21T21:12:06.202Z,58.87
2023-05-21T21:15:14.408Z,58.83
2023-05-21T21:18:16.858Z,58.89
2023-05-21T21:21:19.290Z,58.94
2023-05-21T21:24:21.738Z,58.92
2023-05-21T21:27:24.188Z,58.88
2023-05-21T21:30:26.637Z,58.91
2023-05-21T21:33:29.215Z,58.85
2023-05-21T21:36:31.786Z,58.91
2023-05-21T21:39:34.177Z,59.11
2023-05-21T21:42:36.597Z,58.98
2023-05-21T21:45:39.094Z,59.00
2023-05-21T21:48:41.601Z,59.17
2023-05-21T21:51:48.459Z,59.19
2023-05-21T21:54:50.910Z,58.79
2023-05-21T21:57:53.389Z,59.10
2023-05-21T22:00:56.111Z,59.03
2023-05-21T22:03:58.643Z,59.31
2023-05-21T22:07:01.808Z,59.39
2023-05-21T22:10:05.030Z,59.46
2023-05-21T22:13:07.686Z,59.31
2023-05-21T22:16:11.999Z,59.19
2023-05-21T22:19:16.187Z,59.31
2023-05-21T22:22:18.682Z,59.26
2023-05-21T22:25:21.379Z,59.33
2023-05-21T22:28:23.901Z,59.54
2023-05-21T22:31:27.055Z,59.33
2023-05-21T22:34:29.546Z,59.39
2023-05-21T22:37:32.022Z,59.67
2023-05-21T22:40:34.512Z,59.57
2023-05-21T22:43:37.156Z,59.81
2023-05-21T22:46:42.209Z,59.81
2023-05-21T22:49:45.557Z,59.43
2023-05-21T22:52:48.044Z,59.71
2023-05-21T22:55:51.110Z,59.81
2023-05-21T22:58:53.860Z,59.92
2023-05-21T23:01:56.486Z,59.63
2023-05-21T23:04:58.956Z,59.60
2023-05-21T23:08:01.408Z,59.96
2023-05-21T23:11:04.035Z,59.72
2023-05-21T23:14:06.532Z,59.98
2023-05-21T23:17:08.961Z,59.89
2023-05-21T23:20:11.564Z,59.98
2023-05-21T23:23:13.993Z,59.84
2023-05-21T23:26:16.740Z,60.08
2023-05-21T23:29:19.150Z,60.00
2023-05-21T23:32:21.607Z,60.41
2023-05-21T23:35:24.068Z,60.17
2023-05-21T23:38:26.488Z,60.18
2023-05-21T23:41:28.928Z,60.47
2023-05-21T23:44:31.388Z,60.36
2023-05-21T23:47:33.864Z,60.39
2023-05-21T23:50:36.667Z,60.12
2023-05-21T23:53:39.444Z,60.34
2023-05-21T23:56:41.970Z,60.65
2023-05-21T23:59:44.400Z,60.42
